sensor_id;sensor_type;location;lat;lon;timestamp;P1;durP1;ratioP1;P2;durP2;ratioP2
38629;SDS011;24384;51.988;4.644;2023-07-20T00:00:14;11.73;;;6.30;;
38629;SDS011;24384;51.988;4.644;2023-07-20T00:02:40;15.25;;;7.53;;
38629;SDS011;24384;51.988;4.644;2023-07-20T00:05:06;12.05;;;9.10;;
38629;SDS011;24384;51.988;4.644;2023-07-20T00:07:31;11.98;;;8.50;;
38629;SDS011;24384;51.988;4.644;2023-07-20T00:09:56;13.80;;;10.00;;
38629;SDS011;24384;51.988;4.644;2023-07-20T00:12:23;12.25;;;9.82;;
38629;SDS011;24384;51.988;4.644;2023-07-20T00:14:48;13.45;;;10.75;;
38629;SDS011;24384;51.988;4.644;2023-07-20T00:17:13;11.85;;;10.00;;
38629;SDS011;24384;51.988;4.644;2023-07-20T00:19:39;25.92;;;12.32;;
38629;SDS011;24384;51.988;4.644;2023-07-20T00:22:04;11.27;;;9.68;;
38629;SDS011;24384;51.988;4.644;2023-07-20T00:24:30;13.02;;;7.88;;
38629;SDS011;24384;51.988;4.644;2023-07-20T00:26:55;19.50;;;10.05;;
38629;SDS011;24384;51.988;4.644;2023-07-20T00:29:20;11.85;;;9.60;;
38629;SDS011;24384;51.988;4.644;2023-07-20T00:31:46;12.30;;;10.15;;
38629;SDS011;24384;51.988;4.644;2023-07-20T00:34:11;13.02;;;10.13;;
38629;SDS011;24384;51.988;4.644;2023-07-20T00:36:36;15.15;;;9.60;;
38629;SDS011;24384;51.988;4.644;2023-07-20T00:39:02;14.45;;;9.32;;
38629;SDS011;24384;51.988;4.644;2023-07-20T00:41:28;14.85;;;9.27;;
38629;SDS011;24384;51.988;4.644;2023-07-20T00:43:54;13.80;;;8.43;;
38629;SDS011;24384;51.988;4.644;2023-07-20T00:46:20;8.70;;;7.80;;
38629;SDS011;24384;51.988;4.644;2023-07-20T00:48:48;11.90;;;7.05;;
38629;SDS011;24384;51.988;4.644;2023-07-20T00:51:13;7.60;;;5.80;;
38629;SDS011;24384;51.988;4.644;2023-07-20T00:53:38;6.63;;;5.18;;
38629;SDS011;24384;51.988;4.644;2023-07-20T00:56:04;10.25;;;4.95;;
38629;SDS011;24384;51.988;4.644;2023-07-20T00:58:30;7.97;;;5.30;;
38629;SDS011;24384;51.988;4.644;2023-07-20T01:00:55;7.15;;;4.63;;
38629;SDS011;24384;51.988;4.644;2023-07-20T01:03:20;7.70;;;4.35;;
38629;SDS011;24384;51.988;4.644;2023-07-20T01:09:02;12.15;;;3.97;;
38629;SDS011;24384;51.988;4.644;2023-07-20T01:14:32;6.22;;;4.15;;
38629;SDS011;24384;51.988;4.644;2023-07-20T01:16:59;7.63;;;3.90;;
38629;SDS011;24384;51.988;4.644;2023-07-20T01:19:24;4.07;;;2.88;;
38629;SDS011;24384;51.988;4.644;2023-07-20T01:22:02;4.35;;;3.53;;
38629;SDS011;24384;51.988;4.644;2023-07-20T01:33:11;4.68;;;3.20;;
38629;SDS011;24384;51.988;4.644;2023-07-20T01:35:38;6.97;;;2.83;;
38629;SDS011;24384;51.988;4.644;2023-07-20T01:38:05;7.25;;;3.15;;
38629;SDS011;24384;51.988;4.644;2023-07-20T01:40:32;3.55;;;2.92;;
38629;SDS011;24384;51.988;4.644;2023-07-20T01:42:57;5.28;;;3.30;;
38629;SDS011;24384;51.988;4.644;2023-07-20T01:45:23;4.72;;;3.35;;
38629;SDS011;24384;51.988;4.644;2023-07-20T01:47:48;4.80;;;3.30;;
38629;SDS011;24384;51.988;4.644;2023-07-20T01:50:13;7.05;;;3.42;;
38629;SDS011;24384;51.988;4.644;2023-07-20T01:52:39;4.20;;;3.55;;
38629;SDS011;24384;51.988;4.644;2023-07-20T01:55:04;6.35;;;4.15;;
38629;SDS011;24384;51.988;4.644;2023-07-20T01:57:30;6.63;;;3.08;;
38629;SDS011;24384;51.988;4.644;2023-07-20T01:59:55;11.13;;;3.78;;
38629;SDS011;24384;51.988;4.644;2023-07-20T02:02:20;5.80;;;3.42;;
38629;SDS011;24384;51.988;4.644;2023-07-20T02:04:46;6.95;;;4.00;;
38629;SDS011;24384;51.988;4.644;2023-07-20T02:07:11;4.18;;;3.60;;
38629;SDS011;24384;51.988;4.644;2023-07-20T02:09:36;6.65;;;3.80;;
38629;SDS011;24384;51.988;4.644;2023-07-20T02:12:01;6.13;;;3.65;;
38629;SDS011;24384;51.988;4.644;2023-07-20T02:14:27;6.63;;;3.33;;
38629;SDS011;24384;51.988;4.644;2023-07-20T02:16:52;4.85;;;3.25;;
38629;SDS011;24384;51.988;4.644;2023-07-20T02:19:19;5.15;;;3.78;;
38629;SDS011;24384;51.988;4.644;2023-07-20T02:21:44;6.35;;;3.92;;
38629;SDS011;24384;51.988;4.644;2023-07-20T02:24:11;7.78;;;3.90;;
38629;SDS011;24384;51.988;4.644;2023-07-20T02:26:39;9.20;;;4.50;;
38629;SDS011;24384;51.988;4.644;2023-07-20T02:29:04;7.85;;;4.22;;
38629;SDS011;24384;51.988;4.644;2023-07-20T02:31:30;4.55;;;3.88;;
38629;SDS011;24384;51.988;4.644;2023-07-20T02:33:55;5.07;;;3.75;;
38629;SDS011;24384;51.988;4.644;2023-07-20T02:36:20;4.63;;;3.83;;
38629;SDS011;24384;51.988;4.644;2023-07-20T02:38:45;6.97;;;4.20;;
38629;SDS011;24384;51.988;4.644;2023-07-20T02:41:11;6.07;;;4.00;;
38629;SDS011;24384;51.988;4.644;2023-07-20T02:43:38;13.02;;;3.55;;
38629;SDS011;24384;51.988;4.644;2023-07-20T02:46:03;15.50;;;4.60;;
38629;SDS011;24384;51.988;4.644;2023-07-20T02:48:28;6.03;;;4.40;;
38629;SDS011;24384;51.988;4.644;2023-07-20T02:50:54;6.43;;;4.28;;
38629;SDS011;24384;51.988;4.644;2023-07-20T02:53:19;4.68;;;4.22;;
38629;SDS011;24384;51.988;4.644;2023-07-20T02:55:44;4.57;;;4.13;;
38629;SDS011;24384;51.988;4.644;2023-07-20T02:58:09;9.48;;;5.57;;
38629;SDS011;24384;51.988;4.644;2023-07-20T03:00:35;7.28;;;5.97;;
38629;SDS011;24384;51.988;4.644;2023-07-20T03:03:00;6.10;;;5.40;;
38629;SDS011;24384;51.988;4.644;2023-07-20T03:05:25;14.00;;;6.50;;
38629;SDS011;24384;51.988;4.644;2023-07-20T03:07:52;13.57;;;5.45;;
38629;SDS011;24384;51.988;4.644;2023-07-20T03:10:17;22.70;;;5.53;;
38629;SDS011;24384;51.988;4.644;2023-07-20T03:12:42;13.73;;;5.10;;
38629;SDS011;24384;51.988;4.644;2023-07-20T03:15:08;19.48;;;4.95;;
38629;SDS011;24384;51.988;4.644;2023-07-20T03:17:33;8.30;;;4.53;;
38629;SDS011;24384;51.988;4.644;2023-07-20T03:19:59;5.05;;;4.53;;
38629;SDS011;24384;51.988;4.644;2023-07-20T03:22:25;8.13;;;4.47;;
38629;SDS011;24384;51.988;4.644;2023-07-20T03:24:51;4.80;;;4.28;;
38629;SDS011;24384;51.988;4.644;2023-07-20T03:27:17;12.00;;;4.20;;
38629;SDS011;24384;51.988;4.644;2023-07-20T03:29:42;5.70;;;4.40;;
38629;SDS011;24384;51.988;4.644;2023-07-20T03:32:08;5.57;;;4.18;;
38629;SDS011;24384;51.988;4.644;2023-07-20T03:34:33;7.63;;;4.10;;
38629;SDS011;24384;51.988;4.644;2023-07-20T03:36:58;6.20;;;4.07;;
38629;SDS011;24384;51.988;4.644;2023-07-20T03:39:24;4.78;;;3.90;;
38629;SDS011;24384;51.988;4.644;2023-07-20T03:41:49;4.53;;;4.03;;
38629;SDS011;24384;51.988;4.644;2023-07-20T03:44:14;8.02;;;3.63;;
38629;SDS011;24384;51.988;4.644;2023-07-20T03:46:40;3.88;;;2.75;;
38629;SDS011;24384;51.988;4.644;2023-07-20T03:49:05;4.53;;;3.17;;
38629;SDS011;24384;51.988;4.644;2023-07-20T03:51:31;3.70;;;3.20;;
38629;SDS011;24384;51.988;4.644;2023-07-20T03:53:57;3.20;;;2.90;;
38629;SDS011;24384;51.988;4.644;2023-07-20T03:56:22;6.45;;;3.50;;
38629;SDS011;24384;51.988;4.644;2023-07-20T03:58:48;3.85;;;3.15;;
38629;SDS011;24384;51.988;4.644;2023-07-20T04:01:13;5.38;;;2.85;;
38629;SDS011;24384;51.988;4.644;2023-07-20T04:03:38;13.13;;;2.33;;
38629;SDS011;24384;51.988;4.644;2023-07-20T04:06:03;13.90;;;1.88;;
38629;SDS011;24384;51.988;4.644;2023-07-20T04:08:29;2.65;;;1.65;;
38629;SDS011;24384;51.988;4.644;2023-07-20T04:10:54;112.88;;;5.43;;
38629;SDS011;24384;51.988;4.644;2023-07-20T04:13:21;17.38;;;2.53;;
38629;SDS011;24384;51.988;4.644;2023-07-20T04:15:46;11.23;;;2.80;;
38629;SDS011;24384;51.988;4.644;2023-07-20T04:18:12;5.45;;;3.00;;
38629;SDS011;24384;51.988;4.644;2023-07-20T04:20:37;3.85;;;2.78;;
38629;SDS011;24384;51.988;4.644;2023-07-20T04:23:02;11.18;;;3.30;;
38629;SDS011;24384;51.988;4.644;2023-07-20T04:25:27;8.60;;;2.28;;
38629;SDS011;24384;51.988;4.644;2023-07-20T04:27:53;3.40;;;2.60;;
38629;SDS011;24384;51.988;4.644;2023-07-20T04:30:18;4.78;;;2.75;;
38629;SDS011;24384;51.988;4.644;2023-07-20T04:32:47;5.80;;;3.15;;
38629;SDS011;24384;51.988;4.644;2023-07-20T04:38:16;5.13;;;3.03;;
38629;SDS011;24384;51.988;4.644;2023-07-20T04:40:46;5.38;;;3.10;;
38629;SDS011;24384;51.988;4.644;2023-07-20T04:43:12;3.42;;;2.95;;
38629;SDS011;24384;51.988;4.644;2023-07-20T04:45:38;5.35;;;2.88;;
38629;SDS011;24384;51.988;4.644;2023-07-20T04:48:06;9.05;;;4.45;;
38629;SDS011;24384;51.988;4.644;2023-07-20T04:50:34;5.43;;;2.85;;
38629;SDS011;24384;51.988;4.644;2023-07-20T04:52:59;8.13;;;2.97;;
38629;SDS011;24384;51.988;4.644;2023-07-20T04:55:26;3.80;;;2.92;;
38629;SDS011;24384;51.988;4.644;2023-07-20T04:57:51;5.25;;;2.75;;
38629;SDS011;24384;51.988;4.644;2023-07-20T05:00:17;4.60;;;2.90;;
38629;SDS011;24384;51.988;4.644;2023-07-20T05:02:42;4.53;;;3.38;;
38629;SDS011;24384;51.988;4.644;2023-07-20T05:05:07;6.43;;;2.80;;
38629;SDS011;24384;51.988;4.644;2023-07-20T05:07:34;4.05;;;3.05;;
38629;SDS011;24384;51.988;4.644;2023-07-20T05:09:59;3.58;;;3.10;;
38629;SDS011;24384;51.988;4.644;2023-07-20T05:12:24;8.38;;;2.50;;
38629;SDS011;24384;51.988;4.644;2023-07-20T05:14:49;6.53;;;2.80;;
38629;SDS011;24384;51.988;4.644;2023-07-20T05:17:15;3.38;;;1.75;;
38629;SDS011;24384;51.988;4.644;2023-07-20T05:19:40;3.47;;;1.42;;
38629;SDS011;24384;51.988;4.644;2023-07-20T05:22:05;2.78;;;1.70;;
38629;SDS011;24384;51.988;4.644;2023-07-20T05:24:31;2.50;;;1.70;;
38629;SDS011;24384;51.988;4.644;2023-07-20T05:26:57;3.65;;;2.33;;
38629;SDS011;24384;51.988;4.644;2023-07-20T05:29:23;5.60;;;2.13;;
38629;SDS011;24384;51.988;4.644;2023-07-20T05:31:48;5.03;;;2.20;;
38629;SDS011;24384;51.988;4.644;2023-07-20T05:34:14;6.43;;;2.72;;
38629;SDS011;24384;51.988;4.644;2023-07-20T05:36:39;8.02;;;1.92;;
38629;SDS011;24384;51.988;4.644;2023-07-20T05:39:05;4.82;;;2.20;;
38629;SDS011;24384;51.988;4.644;2023-07-20T05:41:31;4.78;;;1.73;;
38629;SDS011;24384;51.988;4.644;2023-07-20T05:43:56;2.55;;;1.63;;
38629;SDS011;24384;51.988;4.644;2023-07-20T05:46:22;1.92;;;1.30;;
38629;SDS011;24384;51.988;4.644;2023-07-20T05:48:47;2.72;;;1.98;;
38629;SDS011;24384;51.988;4.644;2023-07-20T05:51:12;3.60;;;1.60;;
38629;SDS011;24384;51.988;4.644;2023-07-20T05:53:37;4.60;;;1.60;;
38629;SDS011;24384;51.988;4.644;2023-07-20T05:56:03;3.58;;;1.50;;
38629;SDS011;24384;51.988;4.644;2023-07-20T05:58:29;4.63;;;1.50;;
38629;SDS011;24384;51.988;4.644;2023-07-20T06:00:54;3.03;;;1.42;;
38629;SDS011;24384;51.988;4.644;2023-07-20T06:03:19;2.35;;;1.40;;
38629;SDS011;24384;51.988;4.644;2023-07-20T06:05:46;6.00;;;2.10;;
38629;SDS011;24384;51.988;4.644;2023-07-20T06:08:11;4.00;;;1.85;;
38629;SDS011;24384;51.988;4.644;2023-07-20T06:10:37;3.05;;;1.23;;
38629;SDS011;24384;51.988;4.644;2023-07-20T06:13:02;1.38;;;1.27;;
38629;SDS011;24384;51.988;4.644;2023-07-20T06:15:28;3.42;;;1.80;;
38629;SDS011;24384;51.988;4.644;2023-07-20T06:17:56;2.75;;;1.70;;
38629;SDS011;24384;51.988;4.644;2023-07-20T06:20:24;3.10;;;1.73;;
38629;SDS011;24384;51.988;4.644;2023-07-20T06:22:49;3.53;;;1.38;;
38629;SDS011;24384;51.988;4.644;2023-07-20T06:25:14;2.85;;;1.88;;
38629;SDS011;24384;51.988;4.644;2023-07-20T06:27:40;4.45;;;1.23;;
38629;SDS011;24384;51.988;4.644;2023-07-20T06:30:05;3.55;;;1.27;;
38629;SDS011;24384;51.988;4.644;2023-07-20T06:32:31;2.05;;;1.20;;
38629;SDS011;24384;51.988;4.644;2023-07-20T06:34:56;6.88;;;2.78;;
38629;SDS011;24384;51.988;4.644;2023-07-20T06:37:21;3.85;;;1.58;;
38629;SDS011;24384;51.988;4.644;2023-07-20T06:39:47;2.38;;;1.02;;
38629;SDS011;24384;51.988;4.644;2023-07-20T06:42:12;1.90;;;1.10;;
38629;SDS011;24384;51.988;4.644;2023-07-20T06:44:37;3.47;;;1.42;;
38629;SDS011;24384;51.988;4.644;2023-07-20T06:47:02;3.42;;;1.40;;
38629;SDS011;24384;51.988;4.644;2023-07-20T06:49:28;1.48;;;1.13;;
38629;SDS011;24384;51.988;4.644;2023-07-20T06:51:53;3.80;;;1.35;;
38629;SDS011;24384;51.988;4.644;2023-07-20T06:54:19;4.35;;;1.35;;
38629;SDS011;24384;51.988;4.644;2023-07-20T06:56:44;1.80;;;1.05;;
38629;SDS011;24384;51.988;4.644;2023-07-20T06:59:09;4.95;;;1.27;;
38629;SDS011;24384;51.988;4.644;2023-07-20T07:01:34;2.47;;;1.38;;
38629;SDS011;24384;51.988;4.644;2023-07-20T07:04:00;2.35;;;1.15;;
38629;SDS011;24384;51.988;4.644;2023-07-20T07:06:25;3.55;;;1.48;;
38629;SDS011;24384;51.988;4.644;2023-07-20T07:08:52;3.25;;;1.55;;
38629;SDS011;24384;51.988;4.644;2023-07-20T07:11:17;2.92;;;1.50;;
38629;SDS011;24384;51.988;4.644;2023-07-20T07:13:43;1.73;;;1.23;;
38629;SDS011;24384;51.988;4.644;2023-07-20T07:16:08;2.63;;;1.20;;
38629;SDS011;24384;51.988;4.644;2023-07-20T07:18:33;3.40;;;1.67;;
38629;SDS011;24384;51.988;4.644;2023-07-20T07:20:59;6.65;;;1.70;;
38629;SDS011;24384;51.988;4.644;2023-07-20T07:23:24;2.15;;;1.50;;
38629;SDS011;24384;51.988;4.644;2023-07-20T07:25:49;1.45;;;1.00;;
38629;SDS011;24384;51.988;4.644;2023-07-20T07:28:14;1.23;;;1.00;;
38629;SDS011;24384;51.988;4.644;2023-07-20T07:30:40;2.25;;;1.10;;
38629;SDS011;24384;51.988;4.644;2023-07-20T07:33:05;2.30;;;1.20;;
38629;SDS011;24384;51.988;4.644;2023-07-20T07:35:31;3.05;;;1.20;;
38629;SDS011;24384;51.988;4.644;2023-07-20T07:37:56;3.88;;;1.30;;
38629;SDS011;24384;51.988;4.644;2023-07-20T07:40:21;5.63;;;1.20;;
38629;SDS011;24384;51.988;4.644;2023-07-20T07:42:47;3.92;;;1.40;;
38629;SDS011;24384;51.988;4.644;2023-07-20T07:45:12;3.13;;;1.20;;
38629;SDS011;24384;51.988;4.644;2023-07-20T07:47:38;4.45;;;1.10;;
38629;SDS011;24384;51.988;4.644;2023-07-20T07:50:04;2.17;;;1.17;;
38629;SDS011;24384;51.988;4.644;2023-07-20T07:52:29;1.30;;;1.05;;
38629;SDS011;24384;51.988;4.644;2023-07-20T07:54:54;4.03;;;1.20;;
38629;SDS011;24384;51.988;4.644;2023-07-20T07:57:20;4.70;;;1.20;;
38629;SDS011;24384;51.988;4.644;2023-07-20T07:59:45;1.55;;;0.82;;
38629;SDS011;24384;51.988;4.644;2023-07-20T08:02:10;2.22;;;1.10;;
38629;SDS011;24384;51.988;4.644;2023-07-20T08:04:36;6.65;;;1.30;;
38629;SDS011;24384;51.988;4.644;2023-07-20T08:07:02;1.58;;;1.23;;
38629;SDS011;24384;51.988;4.644;2023-07-20T08:09:28;3.00;;;1.00;;
38629;SDS011;24384;51.988;4.644;2023-07-20T08:11:54;2.40;;;1.10;;
38629;SDS011;24384;51.988;4.644;2023-07-20T08:14:19;4.22;;;1.10;;
38629;SDS011;24384;51.988;4.644;2023-07-20T08:16:45;3.30;;;1.10;;
38629;SDS011;24384;51.988;4.644;2023-07-20T08:19:10;6.00;;;1.10;;
38629;SDS011;24384;51.988;4.644;2023-07-20T08:21:36;3.13;;;1.20;;
38629;SDS011;24384;51.988;4.644;2023-07-20T08:24:01;2.40;;;1.15;;
38629;SDS011;24384;51.988;4.644;2023-07-20T08:26:26;2.53;;;1.40;;
38629;SDS011;24384;51.988;4.644;2023-07-20T08:28:52;8.65;;;2.10;;
38629;SDS011;24384;51.988;4.644;2023-07-20T08:31:17;2.90;;;1.42;;
38629;SDS011;24384;51.988;4.644;2023-07-20T08:33:43;1.83;;;1.15;;
38629;SDS011;24384;51.988;4.644;2023-07-20T08:36:08;1.60;;;1.10;;
38629;SDS011;24384;51.988;4.644;2023-07-20T08:38:33;3.45;;;1.10;;
38629;SDS011;24384;51.988;4.644;2023-07-20T08:40:59;2.33;;;1.17;;
38629;SDS011;24384;51.988;4.644;2023-07-20T08:43:26;2.38;;;1.30;;
38629;SDS011;24384;51.988;4.644;2023-07-20T08:45:56;2.83;;;1.00;;
38629;SDS011;24384;51.988;4.644;2023-07-20T08:48:22;2.10;;;1.00;;
38629;SDS011;24384;51.988;4.644;2023-07-20T08:50:51;2.25;;;1.05;;
38629;SDS011;24384;51.988;4.644;2023-07-20T08:53:20;1.50;;;0.98;;
38629;SDS011;24384;51.988;4.644;2023-07-20T08:55:46;2.90;;;1.10;;
38629;SDS011;24384;51.988;4.644;2023-07-20T08:58:14;1.80;;;1.17;;
38629;SDS011;24384;51.988;4.644;2023-07-20T09:00:40;1.77;;;1.10;;
38629;SDS011;24384;51.988;4.644;2023-07-20T09:03:06;2.63;;;1.30;;
38629;SDS011;24384;51.988;4.644;2023-07-20T09:05:32;4.32;;;1.05;;
38629;SDS011;24384;51.988;4.644;2023-07-20T09:08:00;3.25;;;1.08;;
38629;SDS011;24384;51.988;4.644;2023-07-20T09:10:25;5.22;;;1.15;;
38629;SDS011;24384;51.988;4.644;2023-07-20T09:12:50;2.35;;;1.27;;
38629;SDS011;24384;51.988;4.644;2023-07-20T09:15:16;2.45;;;1.20;;
38629;SDS011;24384;51.988;4.644;2023-07-20T09:17:45;4.47;;;1.88;;
38629;SDS011;24384;51.988;4.644;2023-07-20T09:20:12;3.63;;;1.30;;
38629;SDS011;24384;51.988;4.644;2023-07-20T09:22:40;3.63;;;2.13;;
38629;SDS011;24384;51.988;4.644;2023-07-20T09:25:05;3.17;;;1.40;;
38629;SDS011;24384;51.988;4.644;2023-07-20T09:27:39;29.17;;;2.60;;
38629;SDS011;24384;51.988;4.644;2023-07-20T09:30:06;4.40;;;1.52;;
38629;SDS011;24384;51.988;4.644;2023-07-20T09:32:38;4.00;;;1.17;;
38629;SDS011;24384;51.988;4.644;2023-07-20T09:35:05;3.97;;;1.33;;
38629;SDS011;24384;51.988;4.644;2023-07-20T09:37:32;1.27;;;1.10;;
38629;SDS011;24384;51.988;4.644;2023-07-20T09:39:58;2.10;;;0.98;;
38629;SDS011;24384;51.988;4.644;2023-07-20T09:42:24;2.53;;;1.20;;
38629;SDS011;24384;51.988;4.644;2023-07-20T09:44:50;2.42;;;1.10;;
38629;SDS011;24384;51.988;4.644;2023-07-20T09:47:22;3.30;;;0.90;;
38629;SDS011;24384;51.988;4.644;2023-07-20T09:49:48;2.92;;;1.20;;
38629;SDS011;24384;51.988;4.644;2023-07-20T09:52:14;2.28;;;1.20;;
38629;SDS011;24384;51.988;4.644;2023-07-20T09:54:40;4.40;;;1.20;;
38629;SDS011;24384;51.988;4.644;2023-07-20T09:57:10;4.03;;;1.60;;
38629;SDS011;24384;51.988;4.644;2023-07-20T09:59:37;4.22;;;1.40;;
38629;SDS011;24384;51.988;4.644;2023-07-20T10:02:05;2.20;;;1.08;;
38629;SDS011;24384;51.988;4.644;2023-07-20T10:04:38;3.50;;;1.05;;
38629;SDS011;24384;51.988;4.644;2023-07-20T10:07:05;2.10;;;1.10;;
38629;SDS011;24384;51.988;4.644;2023-07-20T10:09:39;2.45;;;1.20;;
38629;SDS011;24384;51.988;4.644;2023-07-20T10:12:05;1.45;;;1.02;;
38629;SDS011;24384;51.988;4.644;2023-07-20T10:14:32;1.35;;;0.90;;
38629;SDS011;24384;51.988;4.644;2023-07-20T10:17:03;4.05;;;2.03;;
38629;SDS011;24384;51.988;4.644;2023-07-20T10:22:13;1.88;;;1.23;;
38629;SDS011;24384;51.988;4.644;2023-07-20T10:24:41;2.90;;;1.48;;
38629;SDS011;24384;51.988;4.644;2023-07-20T10:27:09;3.38;;;1.40;;
38629;SDS011;24384;51.988;4.644;2023-07-20T10:29:35;3.22;;;1.40;;
38629;SDS011;24384;51.988;4.644;2023-07-20T10:32:01;1.73;;;1.10;;
38629;SDS011;24384;51.988;4.644;2023-07-20T10:34:26;2.85;;;1.33;;
38629;SDS011;24384;51.988;4.644;2023-07-20T10:36:52;2.60;;;1.20;;
38629;SDS011;24384;51.988;4.644;2023-07-20T10:39:30;1.92;;;0.90;;
38629;SDS011;24384;51.988;4.644;2023-07-20T10:42:07;2.20;;;1.00;;
38629;SDS011;24384;51.988;4.644;2023-07-20T10:44:33;8.25;;;1.00;;
38629;SDS011;24384;51.988;4.644;2023-07-20T10:47:03;1.42;;;1.10;;
38629;SDS011;24384;51.988;4.644;2023-07-20T10:49:34;2.85;;;1.83;;
38629;SDS011;24384;51.988;4.644;2023-07-20T10:52:00;5.63;;;1.10;;
38629;SDS011;24384;51.988;4.644;2023-07-20T10:56:55;1.63;;;1.00;;
38629;SDS011;24384;51.988;4.644;2023-07-20T11:01:51;2.42;;;1.30;;
38629;SDS011;24384;51.988;4.644;2023-07-20T11:04:22;3.33;;;1.13;;
38629;SDS011;24384;51.988;4.644;2023-07-20T11:07:06;2.50;;;1.10;;
38629;SDS011;24384;51.988;4.644;2023-07-20T11:09:34;1.55;;;0.75;;
38629;SDS011;24384;51.988;4.644;2023-07-20T11:12:10;3.25;;;1.30;;
38629;SDS011;24384;51.988;4.644;2023-07-20T11:14:42;2.33;;;1.10;;
38629;SDS011;24384;51.988;4.644;2023-07-20T11:17:14;3.90;;;1.40;;
38629;SDS011;24384;51.988;4.644;2023-07-20T11:19:40;2.92;;;1.30;;
38629;SDS011;24384;51.988;4.644;2023-07-20T11:22:06;2.00;;;1.35;;
38629;SDS011;24384;51.988;4.644;2023-07-20T11:24:32;2.75;;;1.15;;
38629;SDS011;24384;51.988;4.644;2023-07-20T11:26:58;2.30;;;1.10;;
38629;SDS011;24384;51.988;4.644;2023-07-20T11:29:24;3.47;;;1.60;;
38629;SDS011;24384;51.988;4.644;2023-07-20T11:31:50;2.83;;;1.83;;
38629;SDS011;24384;51.988;4.644;2023-07-20T11:34:17;2.53;;;1.30;;
38629;SDS011;24384;51.988;4.644;2023-07-20T11:36:44;1.45;;;0.77;;
38629;SDS011;24384;51.988;4.644;2023-07-20T11:39:10;1.60;;;1.20;;
38629;SDS011;24384;51.988;4.644;2023-07-20T11:41:37;2.45;;;1.30;;
38629;SDS011;24384;51.988;4.644;2023-07-20T11:44:03;3.50;;;1.10;;
38629;SDS011;24384;51.988;4.644;2023-07-20T11:46:31;1.52;;;1.00;;
38629;SDS011;24384;51.988;4.644;2023-07-20T11:48:57;1.23;;;1.00;;
38629;SDS011;24384;51.988;4.644;2023-07-20T11:51:23;2.65;;;1.60;;
38629;SDS011;24384;51.988;4.644;2023-07-20T11:53:49;6.25;;;1.88;;
38629;SDS011;24384;51.988;4.644;2023-07-20T11:56:15;1.63;;;1.33;;
38629;SDS011;24384;51.988;4.644;2023-07-20T11:58:43;2.25;;;1.10;;
38629;SDS011;24384;51.988;4.644;2023-07-20T12:01:09;2.20;;;1.00;;
38629;SDS011;24384;51.988;4.644;2023-07-20T12:03:36;3.63;;;0.80;;
38629;SDS011;24384;51.988;4.644;2023-07-20T12:06:08;1.90;;;0.73;;
38629;SDS011;24384;51.988;4.644;2023-07-20T12:08:34;1.05;;;0.80;;
38629;SDS011;24384;51.988;4.644;2023-07-20T12:10:59;2.75;;;0.90;;
38629;SDS011;24384;51.988;4.644;2023-07-20T12:13:35;1.25;;;1.00;;
38629;SDS011;24384;51.988;4.644;2023-07-20T12:16:10;2.67;;;1.00;;
38629;SDS011;24384;51.988;4.644;2023-07-20T12:18:37;0.93;;;0.70;;
38629;SDS011;24384;51.988;4.644;2023-07-20T12:21:02;7.03;;;1.10;;
38629;SDS011;24384;51.988;4.644;2023-07-20T12:23:34;1.20;;;0.80;;
38629;SDS011;24384;51.988;4.644;2023-07-20T12:26:05;1.65;;;1.02;;
38629;SDS011;24384;51.988;4.644;2023-07-20T12:28:32;2.80;;;1.15;;
38629;SDS011;24384;51.988;4.644;2023-07-20T12:30:57;3.33;;;1.50;;
38629;SDS011;24384;51.988;4.644;2023-07-20T12:33:23;3.10;;;1.45;;
38629;SDS011;24384;51.988;4.644;2023-07-20T12:35:49;2.75;;;1.05;;
38629;SDS011;24384;51.988;4.644;2023-07-20T12:38:15;2.08;;;1.00;;
38629;SDS011;24384;51.988;4.644;2023-07-20T12:40:41;1.58;;;1.02;;
38629;SDS011;24384;51.988;4.644;2023-07-20T12:43:06;3.20;;;1.15;;
38629;SDS011;24384;51.988;4.644;2023-07-20T12:45:32;3.97;;;1.20;;
38629;SDS011;24384;51.988;4.644;2023-07-20T12:47:57;4.15;;;1.42;;
38629;SDS011;24384;51.988;4.644;2023-07-20T12:50:22;2.92;;;1.15;;
38629;SDS011;24384;51.988;4.644;2023-07-20T12:52:48;1.70;;;1.10;;
38629;SDS011;24384;51.988;4.644;2023-07-20T12:55:13;1.95;;;1.27;;
38629;SDS011;24384;51.988;4.644;2023-07-20T12:57:38;2.55;;;1.50;;
38629;SDS011;24384;51.988;4.644;2023-07-20T13:00:04;3.70;;;1.40;;
38629;SDS011;24384;51.988;4.644;2023-07-20T13:02:32;2.17;;;1.08;;
38629;SDS011;24384;51.988;4.644;2023-07-20T13:04:58;2.90;;;1.23;;
38629;SDS011;24384;51.988;4.644;2023-07-20T13:07:34;1.67;;;1.00;;
38629;SDS011;24384;51.988;4.644;2023-07-20T13:10:01;1.80;;;1.00;;
38629;SDS011;24384;51.988;4.644;2023-07-20T13:12:28;1.58;;;1.00;;
38629;SDS011;24384;51.988;4.644;2023-07-20T13:14:54;2.63;;;1.20;;
38629;SDS011;24384;51.988;4.644;2023-07-20T13:17:20;1.90;;;0.88;;
38629;SDS011;24384;51.988;4.644;2023-07-20T13:19:46;4.30;;;1.30;;
38629;SDS011;24384;51.988;4.644;2023-07-20T13:22:11;2.45;;;1.45;;
38629;SDS011;24384;51.988;4.644;2023-07-20T13:24:36;1.60;;;0.80;;
38629;SDS011;24384;51.988;4.644;2023-07-20T13:27:02;1.33;;;0.80;;
38629;SDS011;24384;51.988;4.644;2023-07-20T13:29:27;1.77;;;0.90;;
38629;SDS011;24384;51.988;4.644;2023-07-20T13:31:54;3.13;;;1.10;;
38629;SDS011;24384;51.988;4.644;2023-07-20T13:34:19;1.15;;;0.80;;
38629;SDS011;24384;51.988;4.644;2023-07-20T13:36:44;1.23;;;0.80;;
38629;SDS011;24384;51.988;4.644;2023-07-20T13:39:09;2.08;;;1.00;;
38629;SDS011;24384;51.988;4.644;2023-07-20T13:41:35;5.53;;;0.90;;
38629;SDS011;24384;51.988;4.644;2023-07-20T13:44:00;3.75;;;1.30;;
38629;SDS011;24384;51.988;4.644;2023-07-20T13:46:25;4.20;;;1.00;;
38629;SDS011;24384;51.988;4.644;2023-07-20T13:48:50;5.28;;;1.10;;
38629;SDS011;24384;51.988;4.644;2023-07-20T13:51:16;1.67;;;1.08;;
38629;SDS011;24384;51.988;4.644;2023-07-20T13:53:41;3.20;;;0.80;;
38629;SDS011;24384;51.988;4.644;2023-07-20T13:56:06;4.03;;;0.95;;
38629;SDS011;24384;51.988;4.644;2023-07-20T13:58:32;1.42;;;0.77;;
38629;SDS011;24384;51.988;4.644;2023-07-20T14:00:57;1.63;;;0.85;;
38629;SDS011;24384;51.988;4.644;2023-07-20T14:03:23;2.70;;;1.15;;
38629;SDS011;24384;51.988;4.644;2023-07-20T14:05:49;2.42;;;1.00;;
38629;SDS011;24384;51.988;4.644;2023-07-20T14:08:15;5.47;;;1.50;;
38629;SDS011;24384;51.988;4.644;2023-07-20T14:10:40;4.75;;;2.20;;
38629;SDS011;24384;51.988;4.644;2023-07-20T14:13:06;1.70;;;0.90;;
38629;SDS011;24384;51.988;4.644;2023-07-20T14:15:31;6.88;;;0.90;;
38629;SDS011;24384;51.988;4.644;2023-07-20T14:17:56;2.97;;;0.98;;
38629;SDS011;24384;51.988;4.644;2023-07-20T14:20:21;4.95;;;1.15;;
38629;SDS011;24384;51.988;4.644;2023-07-20T14:22:47;0.95;;;0.80;;
38629;SDS011;24384;51.988;4.644;2023-07-20T14:25:13;1.52;;;0.88;;
38629;SDS011;24384;51.988;4.644;2023-07-20T14:27:38;1.50;;;1.00;;
38629;SDS011;24384;51.988;4.644;2023-07-20T14:30:04;1.95;;;0.77;;
38629;SDS011;24384;51.988;4.644;2023-07-20T14:32:30;2.30;;;0.80;;
38629;SDS011;24384;51.988;4.644;2023-07-20T14:34:56;2.00;;;0.90;;
38629;SDS011;24384;51.988;4.644;2023-07-20T14:37:21;1.42;;;0.77;;
38629;SDS011;24384;51.988;4.644;2023-07-20T14:39:46;1.73;;;0.90;;
38629;SDS011;24384;51.988;4.644;2023-07-20T14:42:13;1.20;;;0.88;;
38629;SDS011;24384;51.988;4.644;2023-07-20T14:44:38;1.55;;;0.80;;
38629;SDS011;24384;51.988;4.644;2023-07-20T14:47:04;2.97;;;0.70;;
38629;SDS011;24384;51.988;4.644;2023-07-20T14:49:29;0.77;;;0.77;;
38629;SDS011;24384;51.988;4.644;2023-07-20T14:51:54;2.35;;;0.75;;
38629;SDS011;24384;51.988;4.644;2023-07-20T14:54:20;0.93;;;0.63;;
38629;SDS011;24384;51.988;4.644;2023-07-20T14:56:49;1.10;;;0.70;;
38629;SDS011;24384;51.988;4.644;2023-07-20T14:59:18;1.10;;;0.70;;
38629;SDS011;24384;51.988;4.644;2023-07-20T15:01:44;2.47;;;0.80;;
38629;SDS011;24384;51.988;4.644;2023-07-20T15:04:10;1.35;;;0.80;;